Řízení letového provozu České republiky
Letiste: LKTB Aktualizace: 22.09.2019 09:30:30  UTC
 METAR LKTB 22.09. 09:30 ...
METAR LKTB 220930Z 12014KT 090V170 CAVOK 17/03 Q1018 NOSIG RMK REG QNH 1013=
 TAF LKTB 22.09. 05:00 ...
TAF LKTB 220500Z 2206/2312 09008KT CAVOK      TEMPO 2209/2216 12012G24KT      BECMG 2309/2312 9999 BKN025=